createdAt,value
2023-04-16T00:00:03.978Z,5.39
2023-04-16T00:02:39.552Z,5.40
2023-04-16T00:05:07.741Z,5.37
2023-04-16T00:07:35.352Z,5.35
2023-04-16T00:10:03.070Z,5.33
2023-04-16T00:12:33.328Z,5.30
2023-04-16T00:15:01.147Z,5.27
2023-04-16T00:17:28.729Z,5.23
2023-04-16T00:19:56.338Z,5.20
2023-04-16T00:22:23.862Z,5.17
2023-04-16T00:24:51.347Z,5.13
2023-04-16T00:27:20.434Z,5.09
2023-04-16T00:29:48.463Z,5.10
2023-04-16T00:32:16.451Z,5.05
2023-04-16T00:34:44.041Z,5.10
2023-04-16T00:37:11.581Z,5.13
2023-04-16T00:39:39.152Z,5.11
2023-04-16T00:42:06.733Z,5.06
2023-04-16T00:44:37.571Z,5.10
2023-04-16T00:47:07.717Z,5.08
2023-04-16T00:49:36.415Z,5.12
2023-04-16T00:52:04.141Z,5.11
2023-04-16T00:54:32.129Z,5.11
2023-04-16T00:57:00.207Z,5.08
2023-04-16T00:59:29.116Z,5.07
2023-04-16T01:01:56.835Z,5.08
2023-04-16T01:04:24.725Z,5.05
2023-04-16T01:06:52.701Z,5.02
2023-04-16T01:09:20.212Z,5.05
2023-04-16T01:11:47.836Z,5.06
2023-04-16T01:14:15.486Z,5.03
2023-04-16T01:16:43.123Z,5.07
2023-04-16T01:19:11.049Z,5.05
2023-04-16T01:21:38.906Z,5.02
2023-04-16T01:24:06.668Z,5.05
2023-04-16T01:26:34.226Z,4.98
2023-04-16T01:29:03.195Z,5.00
2023-04-16T01:31:30.746Z,5.01
2023-04-16T01:34:05.580Z,4.98
2023-04-16T01:36:35.528Z,4.98
2023-04-16T01:39:03.699Z,4.93
2023-04-16T01:41:32.234Z,4.90
2023-04-16T01:44:00.193Z,4.91
2023-04-16T01:46:29.582Z,4.84
2023-04-16T01:48:58.210Z,4.92
2023-04-16T01:51:25.857Z,4.88
2023-04-16T01:53:54.203Z,4.87
2023-04-16T01:56:21.962Z,4.90
2023-04-16T01:58:49.900Z,4.89
2023-04-16T02:01:19.373Z,4.91
2023-04-16T02:03:48.760Z,4.90
2023-04-16T02:06:16.530Z,4.82
2023-04-16T02:08:44.236Z,4.83
2023-04-16T02:11:11.780Z,4.81
2023-04-16T02:13:40.231Z,4.86
2023-04-16T02:16:07.952Z,4.81
2023-04-16T02:18:49.594Z,4.75
2023-04-16T02:21:20.307Z,4.66
2023-04-16T02:23:51.873Z,4.63
2023-04-16T02:26:24.174Z,4.63
2023-04-16T02:28:52.054Z,4.56
2023-04-16T02:31:24.137Z,4.48
2023-04-16T02:33:51.994Z,4.54
2023-04-16T02:36:19.608Z,4.46
2023-04-16T02:38:47.139Z,4.48
2023-04-16T02:41:15.245Z,4.41
2023-04-16T02:43:42.732Z,4.42
2023-04-16T02:46:10.466Z,4.40
2023-04-16T02:48:38.031Z,4.37
2023-04-16T02:51:06.054Z,4.36
2023-04-16T02:53:33.550Z,4.34
2023-04-16T02:56:01.231Z,4.37
2023-04-16T02:58:29.123Z,4.43
2023-04-16T03:00:56.829Z,4.43
2023-04-16T03:03:24.520Z,4.50
2023-04-16T03:05:52.367Z,4.49
2023-04-16T03:08:19.924Z,4.58
2023-04-16T03:10:47.442Z,4.58
2023-04-16T03:13:15.693Z,4.64
2023-04-16T03:15:49.978Z,4.69
2023-04-16T03:18:17.797Z,4.72
2023-04-16T03:20:45.522Z,4.73
2023-04-16T03:23:13.398Z,4.76
2023-04-16T03:25:41.045Z,4.77
2023-04-16T03:28:10.173Z,4.86
2023-04-16T03:30:39.085Z,4.89
2023-04-16T03:33:07.720Z,4.88
2023-04-16T03:35:35.909Z,4.97
2023-04-16T03:38:04.073Z,5.01
2023-04-16T03:40:32.076Z,5.09
2023-04-16T03:43:01.035Z,5.18
2023-04-16T03:45:29.584Z,5.28
2023-04-16T03:47:57.636Z,5.42
2023-04-16T03:50:26.815Z,5.56
2023-04-16T03:52:54.903Z,5.68
2023-04-16T03:55:22.619Z,5.84
2023-04-16T03:57:50.131Z,5.91
2023-04-16T04:00:18.092Z,6.03
2023-04-16T04:02:59.118Z,6.11
2023-04-16T04:05:27.981Z,6.19
2023-04-16T04:07:55.490Z,6.29
2023-04-16T04:10:23.612Z,6.43
2023-04-16T04:12:51.874Z,6.66
2023-04-16T04:15:19.561Z,6.74
2023-04-16T04:17:48.099Z,6.97
2023-04-16T04:20:16.338Z,7.13
2023-04-16T04:22:47.772Z,7.29
2023-04-16T04:25:15.598Z,7.52
2023-04-16T04:27:43.438Z,7.65
2023-04-16T04:30:11.415Z,7.76
2023-04-16T04:32:40.026Z,7.94
2023-04-16T04:35:07.949Z,8.09
2023-04-16T04:37:36.290Z,8.23
2023-04-16T04:40:12.573Z,8.26
2023-04-16T04:42:40.060Z,8.39
2023-04-16T04:45:08.608Z,8.36
2023-04-16T04:47:36.550Z,8.41
2023-04-16T04:50:04.361Z,8.39
2023-04-16T04:52:33.638Z,8.45
2023-04-16T04:55:02.552Z,8.57
2023-04-16T04:57:31.709Z,8.68
2023-04-16T04:59:59.637Z,8.88
2023-04-16T05:02:34.496Z,9.02
2023-04-16T05:05:02.211Z,9.14
2023-04-16T05:07:32.345Z,9.25
2023-04-16T05:10:00.218Z,9.29
2023-04-16T05:12:27.817Z,9.33
2023-04-16T05:14:56.793Z,9.30
2023-04-16T05:17:24.364Z,9.27
2023-04-16T05:19:52.846Z,9.28
2023-04-16T05:22:20.557Z,9.30
2023-04-16T05:24:48.183Z,9.30
2023-04-16T05:27:16.340Z,9.45
2023-04-16T05:29:44.179Z,9.54
2023-04-16T05:32:11.836Z,9.73
2023-04-16T05:34:46.499Z,9.87
2023-04-16T05:37:14.104Z,10.00
2023-04-16T05:39:41.572Z,10.26
2023-04-16T05:42:09.293Z,10.56
2023-04-16T05:44:37.759Z,10.96
2023-04-16T05:47:07.376Z,11.09
2023-04-16T05:49:36.999Z,11.22
2023-04-16T05:52:05.819Z,11.38
2023-04-16T05:54:33.280Z,11.66
2023-04-16T05:57:02.428Z,11.93
2023-04-16T05:59:31.112Z,11.89
2023-04-16T06:01:58.901Z,11.98
2023-04-16T06:04:26.604Z,12.05
2023-04-16T06:06:54.223Z,12.09
2023-04-16T06:09:21.795Z,12.25
2023-04-16T06:11:51.029Z,12.32
2023-04-16T06:14:18.928Z,12.44
2023-04-16T06:16:46.626Z,12.94
2023-04-16T06:19:14.165Z,13.51
2023-04-16T06:21:41.707Z,13.97
2023-04-16T06:24:09.393Z,14.41
2023-04-16T06:26:36.947Z,14.80
2023-04-16T06:29:04.609Z,15.10
2023-04-16T06:31:32.390Z,15.23
2023-04-16T06:33:59.910Z,15.20
2023-04-16T06:36:29.147Z,14.92
2023-04-16T06:38:58.078Z,14.60
2023-04-16T06:41:26.837Z,14.47
2023-04-16T06:43:54.499Z,14.36
2023-04-16T06:46:22.064Z,14.15
2023-04-16T06:48:49.834Z,14.15
2023-04-16T06:51:17.492Z,14.34
2023-04-16T06:53:45.143Z,14.43
2023-04-16T06:56:12.682Z,14.64
2023-04-16T06:58:40.255Z,14.92
2023-04-16T07:01:07.996Z,15.10
2023-04-16T07:03:35.771Z,15.15
2023-04-16T07:06:03.434Z,15.07
2023-04-16T07:08:31.715Z,15.00
2023-04-16T07:10:59.520Z,14.99
2023-04-16T07:13:27.726Z,15.15
2023-04-16T07:15:56.460Z,15.65
2023-04-16T07:18:24.062Z,16.11
2023-04-16T07:20:51.628Z,16.34
2023-04-16T07:23:19.225Z,16.32
2023-04-16T07:25:46.800Z,16.17
2023-04-16T07:28:17.197Z,16.08
2023-04-16T07:30:44.900Z,15.86
2023-04-16T07:33:12.556Z,15.67
2023-04-16T07:35:40.237Z,15.54
2023-04-16T07:38:07.826Z,15.54
2023-04-16T07:40:36.614Z,15.40
2023-04-16T07:43:04.394Z,15.34
2023-04-16T07:45:32.078Z,15.25
2023-04-16T07:47:59.725Z,15.26
2023-04-16T07:50:27.508Z,15.39
2023-04-16T07:52:57.504Z,15.67
2023-04-16T07:55:25.498Z,16.25
2023-04-16T07:57:53.015Z,16.99
2023-04-16T08:00:20.672Z,17.94
2023-04-16T08:02:48.596Z,18.18
2023-04-16T08:05:16.415Z,17.82
2023-04-16T08:07:43.974Z,17.67
2023-04-16T08:10:11.748Z,17.80
2023-04-16T08:12:39.544Z,17.91
2023-04-16T08:15:08.753Z,17.73
2023-04-16T08:17:37.826Z,17.66
2023-04-16T08:20:06.812Z,17.39
2023-04-16T08:22:34.681Z,17.09
2023-04-16T08:25:03.522Z,16.81
2023-04-16T08:27:32.295Z,16.79
2023-04-16T08:29:59.931Z,17.13
2023-04-16T08:32:28.226Z,17.87
2023-04-16T08:34:55.908Z,18.81
2023-04-16T08:37:23.924Z,19.61
2023-04-16T08:39:51.480Z,20.54
2023-04-16T08:42:48.779Z,21.82
2023-04-16T08:45:19.600Z,21.71
2023-04-16T08:47:50.375Z,21.41
2023-04-16T08:50:24.208Z,21.72
2023-04-16T08:52:59.398Z,22.11
2023-04-16T08:55:37.213Z,22.62
2023-04-16T08:58:23.686Z,23.43
2023-04-16T09:00:52.311Z,23.69
2023-04-16T09:03:21.680Z,23.65
2023-04-16T09:05:51.666Z,23.74
2023-04-16T09:08:20.303Z,23.87
2023-04-16T09:10:49.150Z,23.89
2023-04-16T09:13:20.469Z,23.81
2023-04-16T09:15:51.957Z,23.67
2023-04-16T09:18:21.493Z,23.14
2023-04-16T09:20:51.212Z,22.77
2023-04-16T09:23:18.937Z,22.81
2023-04-16T09:25:46.669Z,23.21
2023-04-16T09:28:41.137Z,24.14
2023-04-16T09:31:10.866Z,23.60
2023-04-16T09:33:39.706Z,23.29
2023-04-16T09:36:07.989Z,22.76
2023-04-16T09:38:56.903Z,22.51
2023-04-16T09:41:31.852Z,22.24
2023-04-16T09:44:04.612Z,22.09
2023-04-16T09:46:35.488Z,22.29
2023-04-16T09:49:21.127Z,22.63
2023-04-16T09:51:54.700Z,22.21
2023-04-16T09:54:22.337Z,22.38
2023-04-16T09:56:51.264Z,22.68
2023-04-16T09:59:23.781Z,22.15
2023-04-16T10:01:57.217Z,21.52
2023-04-16T10:04:53.067Z,21.41
2023-04-16T10:07:21.864Z,21.40
2023-04-16T10:09:50.114Z,22.23
2023-04-16T10:12:17.699Z,23.12
2023-04-16T10:14:45.280Z,23.47
2023-04-16T10:17:13.173Z,23.52
2023-04-16T10:19:41.926Z,22.94
2023-04-16T10:22:09.447Z,22.47
2023-04-16T10:24:37.138Z,21.84
2023-04-16T10:27:04.734Z,22.62
2023-04-16T10:29:33.845Z,24.20
2023-04-16T10:32:04.167Z,26.31
2023-04-16T10:34:32.262Z,28.04
2023-04-16T10:37:00.800Z,29.24
2023-04-16T10:39:30.915Z,30.05
2023-04-16T10:42:27.718Z,31.59
2023-04-16T10:44:59.077Z,31.47
2023-04-16T10:47:27.028Z,30.65
2023-04-16T10:49:58.812Z,28.42
2023-04-16T10:52:29.668Z,26.28
2023-04-16T10:54:59.454Z,24.98
2023-04-16T10:57:29.351Z,24.60
2023-04-16T10:59:57.110Z,25.63
2023-04-16T11:02:31.008Z,27.19
2023-04-16T11:04:59.078Z,28.53
2023-04-16T11:07:39.439Z,29.98
2023-04-16T11:10:07.745Z,30.67
2023-04-16T11:12:40.172Z,31.27
2023-04-16T11:15:13.081Z,30.99
2023-04-16T11:17:44.237Z,29.85
2023-04-16T11:20:41.529Z,31.27
2023-04-16T11:23:11.557Z,31.06
2023-04-16T11:25:39.253Z,30.41
2023-04-16T11:28:06.844Z,29.45
2023-04-16T11:30:36.387Z,28.03
2023-04-16T11:33:05.889Z,26.36
2023-04-16T11:35:33.731Z,26.42
2023-04-16T11:38:01.279Z,27.48
2023-04-16T11:40:32.154Z,28.52
2023-04-16T11:43:12.800Z,29.65
2023-04-16T11:45:55.156Z,30.00
2023-04-16T11:48:22.982Z,30.60
2023-04-16T11:50:59.671Z,30.66
2023-04-16T11:53:27.372Z,31.10
2023-04-16T11:55:54.917Z,32.18
2023-04-16T11:58:24.309Z,32.41
2023-04-16T12:00:56.905Z,31.65
2023-04-16T12:03:47.274Z,30.18
2023-04-16T12:06:16.106Z,29.37
2023-04-16T12:08:43.708Z,29.13
2023-04-16T12:11:11.416Z,28.79
2023-04-16T12:13:40.325Z,29.76
2023-04-16T12:16:18.945Z,31.50
2023-04-16T12:19:05.889Z,32.10
2023-04-16T12:21:45.929Z,32.22
2023-04-16T12:24:15.889Z,32.44
2023-04-16T12:26:46.672Z,33.26
2023-04-16T12:29:24.225Z,33.92
2023-04-16T12:31:53.329Z,33.42
2023-04-16T12:34:21.871Z,32.30
2023-04-16T12:37:12.436Z,32.28
2023-04-16T12:39:40.030Z,32.59
2023-04-16T12:42:11.307Z,33.02
2023-04-16T12:44:39.089Z,33.05
2023-04-16T12:47:06.972Z,32.80
2023-04-16T12:49:36.426Z,32.96
2023-04-16T12:52:04.348Z,33.13
2023-04-16T12:54:32.153Z,32.56
2023-04-16T12:56:59.867Z,31.05
2023-04-16T12:59:27.432Z,30.08
2023-04-16T13:01:56.358Z,28.51
2023-04-16T13:04:25.696Z,26.59
2023-04-16T13:06:53.681Z,25.72
2023-04-16T13:09:21.544Z,25.55
2023-04-16T13:11:49.427Z,25.22
2023-04-16T13:14:17.048Z,25.07
2023-04-16T13:16:44.690Z,25.46
2023-04-16T13:19:12.549Z,25.90
2023-04-16T13:21:40.678Z,26.30
2023-04-16T13:24:09.925Z,26.10
2023-04-16T13:26:37.451Z,24.33
2023-04-16T13:29:04.984Z,22.38
2023-04-16T13:31:33.254Z,20.79
2023-04-16T13:34:01.085Z,19.42
2023-04-16T13:36:30.175Z,18.61
2023-04-16T13:38:58.673Z,18.10
2023-04-16T13:41:26.499Z,17.61
2023-04-16T13:43:54.822Z,17.08
2023-04-16T13:46:22.579Z,16.84
2023-04-16T13:48:50.176Z,16.39
2023-04-16T13:51:17.804Z,16.10
2023-04-16T13:53:45.372Z,15.84
2023-04-16T13:56:12.964Z,15.74
2023-04-16T13:58:41.519Z,15.63
2023-04-16T14:01:09.943Z,15.48
2023-04-16T14:03:39.094Z,15.41
2023-04-16T14:06:06.828Z,15.18
2023-04-16T14:08:35.433Z,15.05
2023-04-16T14:11:03.107Z,14.99
2023-04-16T14:13:30.656Z,14.93
2023-04-16T14:15:58.220Z,14.80
2023-04-16T14:18:25.952Z,14.72
2023-04-16T14:20:53.489Z,14.60
2023-04-16T14:23:21.417Z,14.46
2023-04-16T14:25:51.881Z,14.41
2023-04-16T14:28:20.475Z,14.31
2023-04-16T14:30:48.274Z,14.26
2023-04-16T14:33:20.549Z,14.22
2023-04-16T14:35:50.378Z,14.15
2023-04-16T14:38:18.233Z,14.22
2023-04-16T14:40:45.835Z,14.16
2023-04-16T14:43:13.397Z,14.12
2023-04-16T14:45:41.032Z,14.08
2023-04-16T14:48:09.195Z,14.04
2023-04-16T14:50:43.735Z,14.03
2023-04-16T14:53:12.058Z,13.98
2023-04-16T14:55:39.983Z,14.02
2023-04-16T14:58:07.544Z,14.00
2023-04-16T15:00:35.753Z,13.95
2023-04-16T15:03:03.508Z,13.92
2023-04-16T15:05:31.937Z,13.83
2023-04-16T15:08:00.686Z,13.81
2023-04-16T15:10:28.378Z,13.76
2023-04-16T15:12:56.099Z,13.75
2023-04-16T15:15:23.596Z,13.73
2023-04-16T15:17:52.006Z,13.64
2023-04-16T15:20:19.646Z,13.62
2023-04-16T15:22:47.152Z,13.56
2023-04-16T15:25:14.718Z,13.49
2023-04-16T15:27:42.289Z,13.50
2023-04-16T15:30:13.459Z,13.49
2023-04-16T15:32:41.415Z,13.39
2023-04-16T15:35:11.202Z,13.43
2023-04-16T15:37:39.275Z,13.39
2023-04-16T15:40:10.857Z,13.29
2023-04-16T15:42:39.118Z,13.30
2023-04-16T15:45:07.104Z,13.26
2023-04-16T15:47:37.202Z,13.21
2023-04-16T15:50:06.651Z,13.17
2023-04-16T15:52:34.380Z,13.09
2023-04-16T15:55:06.431Z,13.11
2023-04-16T15:57:35.164Z,13.12
2023-04-16T16:00:06.930Z,13.08
2023-04-16T16:02:35.251Z,13.04
2023-04-16T16:05:03.486Z,12.98
2023-04-16T16:07:31.555Z,12.93
2023-04-16T16:09:59.300Z,12.97
2023-04-16T16:12:27.398Z,12.93
2023-04-16T16:14:55.754Z,12.89
2023-04-16T16:17:23.403Z,12.91
2023-04-16T16:19:52.422Z,12.87
2023-04-16T16:22:20.808Z,12.89
2023-04-16T16:24:51.019Z,12.90
2023-04-16T16:27:19.865Z,12.89
2023-04-16T16:29:47.644Z,12.92
2023-04-16T16:32:15.317Z,12.92
2023-04-16T16:34:43.365Z,12.92
2023-04-16T16:37:10.885Z,12.93
2023-04-16T16:39:38.835Z,12.94
2023-04-16T16:42:08.651Z,12.96
2023-04-16T16:44:36.979Z,12.89
2023-04-16T16:47:04.599Z,12.92
2023-04-16T16:49:32.311Z,12.87
2023-04-16T16:52:01.965Z,12.85
2023-04-16T16:54:29.608Z,12.77
2023-04-16T16:56:57.276Z,12.75
2023-04-16T16:59:24.784Z,12.69
2023-04-16T17:01:52.371Z,12.64
2023-04-16T17:04:20.500Z,12.56
2023-04-16T17:06:48.493Z,12.56
2023-04-16T17:09:17.212Z,12.55
2023-04-16T17:11:44.945Z,12.48
2023-04-16T17:14:12.506Z,12.46
2023-04-16T17:16:40.118Z,12.45
2023-04-16T17:19:07.695Z,12.42
2023-04-16T17:21:36.311Z,12.40
2023-04-16T17:24:05.164Z,12.37
2023-04-16T17:26:32.842Z,12.35
2023-04-16T17:29:00.384Z,12.31
2023-04-16T17:31:28.722Z,12.32
2023-04-16T17:33:56.274Z,12.34
2023-04-16T17:37:19.656Z,12.40
2023-04-16T17:45:10.528Z,12.41
2023-04-16T17:48:35.997Z,12.39
2023-04-16T17:55:03.751Z,12.37
2023-04-16T17:57:31.988Z,12.33
2023-04-16T17:59:59.786Z,12.38
2023-04-16T18:02:27.765Z,12.39
2023-04-16T18:04:55.620Z,12.38
2023-04-16T18:07:24.015Z,12.33
2023-04-16T18:09:51.626Z,12.35
2023-04-16T18:12:19.252Z,12.38
2023-04-16T18:14:46.978Z,12.37
2023-04-16T18:17:14.947Z,12.35
2023-04-16T18:19:44.939Z,12.37
2023-04-16T18:22:13.509Z,12.38
2023-04-16T18:24:44.799Z,12.38
2023-04-16T18:27:12.698Z,12.40
2023-04-16T18:29:40.749Z,12.37
2023-04-16T18:32:11.677Z,12.33
2023-04-16T18:34:39.682Z,12.29
2023-04-16T18:37:07.588Z,12.30
2023-04-16T18:39:35.955Z,12.27
2023-04-16T18:42:03.990Z,12.21
2023-04-16T18:44:32.331Z,12.19
2023-04-16T18:46:59.901Z,12.12
2023-04-16T18:49:27.589Z,12.15
2023-04-16T18:51:57.977Z,12.12
2023-04-16T18:54:25.652Z,12.11
2023-04-16T18:56:53.167Z,12.09
2023-04-16T18:59:21.862Z,12.07
2023-04-16T19:01:49.631Z,12.08
2023-04-16T19:04:17.356Z,12.07
2023-04-16T19:06:46.471Z,12.05
2023-04-16T19:09:14.883Z,12.04
2023-04-16T19:11:42.870Z,12.03
2023-04-16T19:14:11.485Z,12.01
2023-04-16T19:16:39.498Z,11.98
2023-04-16T19:19:07.132Z,11.97
2023-04-16T19:21:54.505Z,11.96
2023-04-16T19:24:41.596Z,11.98
2023-04-16T19:27:09.186Z,11.96
2023-04-16T19:29:37.100Z,11.98
2023-04-16T19:32:04.821Z,11.96
2023-04-16T19:35:30.776Z,12.00
2023-04-16T19:38:30.179Z,11.94
2023-04-16T19:45:46.600Z,12.00
2023-04-16T19:49:36.476Z,11.94
2023-04-16T20:00:52.810Z,11.84
2023-04-16T20:03:20.953Z,11.75
2023-04-16T20:05:49.870Z,11.72
2023-04-16T20:08:17.548Z,11.73
2023-04-16T20:10:45.446Z,11.70
2023-04-16T20:13:13.847Z,11.69
2023-04-16T20:15:41.878Z,11.66
2023-04-16T20:18:09.444Z,11.64
2023-04-16T20:20:39.833Z,11.62
2023-04-16T20:23:07.905Z,11.60
2023-04-16T20:25:35.554Z,11.59
2023-04-16T20:28:03.144Z,11.52
2023-04-16T20:30:38.506Z,11.55
2023-04-16T20:33:06.965Z,11.59
2023-04-16T20:35:35.363Z,11.56
2023-04-16T20:38:03.122Z,11.59
2023-04-16T20:40:30.809Z,11.58
2023-04-16T20:43:01.730Z,11.57
2023-04-16T20:45:38.178Z,11.55
2023-04-16T20:48:06.278Z,11.51
2023-04-16T20:50:34.031Z,11.49
2023-04-16T20:53:01.714Z,11.44
2023-04-16T20:55:31.599Z,11.42
2023-04-16T20:58:14.302Z,11.40
2023-04-16T21:00:52.303Z,11.35
2023-04-16T21:03:23.546Z,11.32
2023-04-16T21:05:55.859Z,11.29
2023-04-16T21:08:25.986Z,11.26
2023-04-16T21:10:53.688Z,11.22
2023-04-16T21:13:21.918Z,11.24
2023-04-16T21:15:49.551Z,11.24
2023-04-16T21:18:18.625Z,11.22
2023-04-16T21:20:46.683Z,11.20
2023-04-16T21:23:14.293Z,11.23
2023-04-16T21:25:42.145Z,11.21
2023-04-16T21:28:09.669Z,11.20
2023-04-16T21:30:37.336Z,11.11
2023-04-16T21:33:05.087Z,11.18
2023-04-16T21:35:33.424Z,11.17
2023-04-16T21:38:01.207Z,11.13
2023-04-16T21:43:34.652Z,11.11
2023-04-16T21:46:04.979Z,11.05
2023-04-16T21:48:32.784Z,11.00
2023-04-16T21:51:06.477Z,11.02
2023-04-16T21:53:34.466Z,11.02
2023-04-16T21:56:02.008Z,11.00
2023-04-16T21:58:29.739Z,11.02
2023-04-16T22:00:57.411Z,11.02
2023-04-16T22:03:30.596Z,10.96
2023-04-16T22:06:23.522Z,11.02
2023-04-16T22:17:17.226Z,10.86
2023-04-16T22:19:45.203Z,10.81
2023-04-16T22:22:13.540Z,10.80
2023-04-16T22:24:41.302Z,10.78
2023-04-16T22:27:08.910Z,10.74
2023-04-16T22:29:36.545Z,10.75
2023-04-16T22:32:04.368Z,10.74
2023-04-16T22:35:12.753Z,10.81
2023-04-16T22:37:40.934Z,10.76
2023-04-16T22:40:10.767Z,10.76
2023-04-16T22:42:38.345Z,10.74
2023-04-16T22:45:07.356Z,10.72
2023-04-16T22:47:35.017Z,10.72
2023-04-16T22:50:03.373Z,10.72
2023-04-16T22:52:32.250Z,10.70
2023-04-16T22:54:59.795Z,10.64
2023-04-16T22:57:27.288Z,10.68
2023-04-16T22:59:54.951Z,10.67
2023-04-16T23:02:22.478Z,10.62
2023-04-16T23:04:50.536Z,10.64
2023-04-16T23:07:17.959Z,10.63
2023-04-16T23:09:45.546Z,10.61
2023-04-16T23:12:13.107Z,10.65
2023-04-16T23:14:46.077Z,10.69
2023-04-16T23:17:13.954Z,10.67
2023-04-16T23:19:42.006Z,10.64
2023-04-16T23:22:10.114Z,10.64
2023-04-16T23:24:37.628Z,10.57
2023-04-16T23:27:05.439Z,10.57
2023-04-16T23:29:33.152Z,10.53
2023-04-16T23:32:00.665Z,10.49
2023-04-16T23:34:28.250Z,10.46
2023-04-16T23:36:55.721Z,10.47
2023-04-16T23:39:23.229Z,10.45
2023-04-16T23:41:50.737Z,10.37
2023-04-16T23:44:18.320Z,10.39
2023-04-16T23:46:46.056Z,10.36
2023-04-16T23:49:13.689Z,10.33
2023-04-16T23:51:41.327Z,10.30
2023-04-16T23:54:08.951Z,10.24
2023-04-16T23:56:36.512Z,10.24
2023-04-16T23:59:04.120Z,10.22
